createdAt,value
2017-07-23T00:00:40.502Z,6.37
2017-07-23T00:03:09.500Z,6.23
2017-07-23T00:05:38.517Z,5.90
2017-07-23T00:08:07.506Z,5.90
2017-07-23T00:10:36.462Z,6.60
2017-07-23T00:13:05.415Z,5.70
2017-07-23T00:15:34.441Z,5.70
2017-07-23T00:18:03.461Z,5.87
2017-07-23T00:20:32.381Z,5.90
2017-07-23T00:23:01.342Z,6.10
2017-07-23T00:25:30.379Z,6.17
2017-07-23T00:27:59.405Z,6.73
2017-07-23T00:30:28.334Z,6.30
2017-07-23T00:32:57.739Z,11.70
2017-07-23T00:35:26.695Z,8.80
2017-07-23T00:37:55.849Z,8.33
2017-07-23T00:40:24.833Z,8.43
2017-07-23T00:42:53.834Z,7.40
2017-07-23T00:45:22.841Z,6.40
2017-07-23T00:47:51.835Z,6.00
2017-07-23T00:50:35.346Z,6.13
2017-07-23T00:53:04.355Z,7.33
2017-07-23T00:55:33.321Z,7.00
2017-07-23T00:58:02.279Z,7.20
2017-07-23T01:00:31.288Z,6.90
2017-07-23T01:03:00.253Z,7.10
2017-07-23T01:05:29.245Z,7.60
2017-07-23T01:07:58.285Z,7.87
2017-07-23T01:10:27.253Z,4.20
2017-07-23T01:12:56.244Z,2.93
2017-07-23T01:15:25.265Z,3.63
2017-07-23T01:17:54.191Z,2.67
2017-07-23T01:20:23.236Z,4.10
2017-07-23T01:22:52.257Z,3.25
2017-07-23T01:25:21.500Z,2.70
2017-07-23T01:27:50.456Z,2.87
2017-07-23T01:30:19.546Z,3.25
2017-07-23T01:32:48.486Z,3.12
2017-07-23T01:35:17.498Z,4.47
2017-07-23T01:37:46.450Z,3.28
2017-07-23T01:40:15.419Z,4.20
2017-07-23T01:42:44.385Z,4.18
2017-07-23T01:47:51.540Z,4.78
2017-07-23T01:50:20.518Z,5.35
2017-07-23T01:52:49.549Z,5.22
2017-07-23T01:55:19.131Z,5.30
2017-07-23T01:57:48.293Z,5.75
2017-07-23T02:00:17.247Z,4.40
2017-07-23T02:02:46.246Z,5.12
2017-07-23T02:05:15.227Z,5.25
2017-07-23T02:07:44.174Z,4.80
2017-07-23T02:10:13.122Z,5.28
2017-07-23T02:12:42.066Z,4.75
2017-07-23T02:15:11.036Z,4.05
2017-07-23T02:17:39.986Z,4.70
2017-07-23T02:20:08.981Z,4.77
2017-07-23T02:22:37.981Z,4.20
2017-07-23T02:25:06.995Z,4.45
2017-07-23T02:27:35.968Z,4.53
2017-07-23T02:30:19.559Z,4.10
2017-07-23T02:32:48.542Z,4.70
2017-07-23T02:35:17.552Z,4.07
2017-07-23T02:37:46.521Z,5.00
2017-07-23T02:40:15.491Z,4.80
2017-07-23T02:42:44.431Z,4.77
2017-07-23T02:45:13.413Z,3.55
2017-07-23T02:47:42.392Z,4.45
2017-07-23T02:50:11.329Z,4.30
2017-07-23T02:52:40.315Z,3.90
2017-07-23T02:55:09.330Z,4.15
2017-07-23T02:57:38.356Z,3.72
2017-07-23T03:00:07.317Z,3.53
2017-07-23T03:02:36.646Z,3.83
2017-07-23T03:05:05.586Z,3.85
2017-07-23T03:07:34.550Z,4.10
2017-07-23T03:10:03.577Z,3.72
2017-07-23T03:12:32.557Z,4.72
2017-07-23T03:15:01.493Z,4.60
2017-07-23T03:17:30.798Z,4.62
2017-07-23T03:19:59.804Z,4.20
2017-07-23T03:22:29.211Z,4.47
2017-07-23T03:24:58.173Z,3.70
2017-07-23T03:27:27.177Z,4.65
2017-07-23T03:29:56.163Z,4.68
2017-07-23T03:32:25.173Z,4.53
2017-07-23T03:34:54.175Z,3.87
2017-07-23T03:37:23.116Z,4.87
2017-07-23T03:39:52.112Z,4.60
2017-07-23T03:42:21.694Z,5.25
2017-07-23T03:44:50.785Z,4.43
2017-07-23T03:47:20.180Z,5.25
2017-07-23T03:49:49.568Z,5.80
2017-07-23T03:52:20.983Z,5.28
2017-07-23T03:54:50.059Z,6.30
2017-07-23T03:57:19.029Z,5.32
2017-07-23T03:59:47.974Z,5.73
2017-07-23T04:02:16.940Z,5.33
2017-07-23T04:04:45.925Z,5.07
2017-07-23T04:07:14.887Z,5.93
2017-07-23T04:09:43.875Z,6.30
2017-07-23T04:12:12.852Z,6.47
2017-07-23T04:14:41.930Z,7.45
2017-07-23T04:17:13.868Z,6.07
2017-07-23T04:19:42.889Z,6.72
2017-07-23T04:22:11.853Z,6.82
2017-07-23T04:24:40.882Z,7.70
2017-07-23T04:27:10.138Z,7.60
2017-07-23T04:30:58.310Z,7.20
2017-07-23T04:33:27.242Z,8.17
2017-07-23T04:35:56.217Z,8.10
2017-07-23T04:38:25.213Z,9.37
2017-07-23T04:40:54.180Z,9.32
2017-07-23T04:43:23.184Z,9.50
2017-07-23T04:45:52.174Z,8.85
2017-07-23T04:48:21.165Z,9.65
2017-07-23T04:50:50.104Z,9.47
2017-07-23T04:53:19.046Z,8.57
2017-07-23T04:55:48.061Z,9.70
2017-07-23T04:58:17.021Z,9.47
2017-07-23T05:00:45.991Z,10.30
2017-07-23T05:03:14.970Z,10.10
2017-07-23T05:05:43.937Z,10.30
2017-07-23T05:08:12.907Z,10.23
2017-07-23T05:10:41.886Z,10.40
2017-07-23T05:13:10.859Z,11.05
2017-07-23T05:16:59.160Z,9.95
2017-07-23T05:19:28.117Z,11.70
2017-07-23T05:21:57.089Z,11.40
2017-07-23T05:24:26.157Z,11.05
2017-07-23T05:26:55.160Z,10.65
2017-07-23T05:29:24.183Z,11.80
2017-07-23T05:31:53.174Z,14.00
2017-07-23T05:34:22.150Z,11.35
2017-07-23T05:36:51.172Z,11.73
2017-07-23T05:39:20.197Z,13.77
2017-07-23T05:41:49.181Z,13.25
2017-07-23T05:44:18.186Z,14.52
2017-07-23T05:46:47.193Z,13.80
2017-07-23T05:49:16.189Z,11.82
2017-07-23T05:51:45.464Z,10.27
2017-07-23T05:54:14.474Z,9.73
2017-07-23T05:56:43.467Z,10.25
2017-07-23T05:59:12.473Z,11.00
2017-07-23T06:02:11.638Z,10.60
2017-07-23T06:04:40.642Z,10.63
2017-07-23T06:07:09.598Z,10.05
2017-07-23T06:09:38.550Z,10.23
2017-07-23T06:12:07.546Z,8.80
2017-07-23T06:14:36.497Z,9.33
2017-07-23T06:17:05.490Z,9.30
2017-07-23T06:19:34.459Z,8.83
2017-07-23T06:22:03.433Z,8.50
2017-07-23T06:24:32.398Z,7.83
2017-07-23T06:27:01.362Z,7.13
2017-07-23T06:29:30.314Z,6.70
2017-07-23T06:31:59.322Z,5.83
2017-07-23T06:34:28.302Z,5.80
2017-07-23T06:36:57.488Z,6.10
2017-07-23T06:39:26.483Z,5.53
2017-07-23T06:41:55.431Z,5.73
2017-07-23T06:44:24.397Z,6.13
2017-07-23T06:46:53.666Z,5.63
2017-07-23T06:49:22.587Z,6.20
2017-07-23T06:51:51.570Z,5.20
2017-07-23T06:54:20.574Z,5.30
2017-07-23T06:56:49.535Z,4.30
2017-07-23T06:59:18.529Z,4.43
2017-07-23T07:01:47.483Z,4.50
2017-07-23T07:04:16.441Z,4.43
2017-07-23T07:06:45.401Z,4.20
2017-07-23T07:09:14.365Z,4.37
2017-07-23T07:11:43.287Z,4.53
2017-07-23T07:14:12.299Z,3.77
2017-07-23T07:16:41.373Z,4.13
2017-07-23T07:19:10.429Z,4.23
2017-07-23T07:21:39.726Z,3.90
2017-07-23T07:24:08.669Z,3.47
2017-07-23T07:26:37.666Z,3.63
2017-07-23T07:29:08.015Z,3.87
2017-07-23T07:31:37.053Z,3.90
2017-07-23T07:34:06.006Z,4.60
2017-07-23T07:36:34.993Z,4.80
2017-07-23T07:39:04.177Z,3.87
2017-07-23T07:41:33.144Z,3.27
2017-07-23T07:44:02.186Z,2.93
2017-07-23T07:46:31.462Z,2.80
2017-07-23T07:49:00.705Z,2.73
2017-07-23T07:51:29.758Z,2.90
2017-07-23T07:53:58.750Z,2.67
2017-07-23T07:56:27.807Z,2.17
2017-07-23T07:58:56.963Z,2.30
2017-07-23T08:01:25.973Z,2.47
2017-07-23T08:03:54.939Z,2.63
2017-07-23T08:06:24.038Z,2.53
2017-07-23T08:08:53.073Z,2.23
2017-07-23T08:11:22.027Z,1.90
2017-07-23T08:13:51.083Z,2.40
2017-07-23T08:16:20.071Z,2.90
2017-07-23T08:18:49.086Z,3.17
2017-07-23T08:21:18.017Z,3.00
2017-07-23T08:23:47.028Z,2.77
2017-07-23T08:26:16.067Z,3.33
2017-07-23T08:28:45.122Z,2.97
2017-07-23T08:31:14.114Z,2.80
2017-07-23T08:33:43.136Z,2.30
2017-07-23T08:36:12.172Z,2.10
2017-07-23T08:39:11.685Z,1.90
2017-07-23T08:41:40.704Z,2.00
2017-07-23T08:44:09.726Z,2.17
2017-07-23T08:46:38.726Z,1.30
2017-07-23T08:49:07.745Z,1.50
2017-07-23T08:51:36.687Z,1.20
2017-07-23T08:54:05.686Z,1.30
2017-07-23T08:56:34.701Z,1.30
2017-07-23T08:59:03.770Z,1.50
2017-07-23T09:01:32.855Z,1.30
2017-07-23T09:04:01.957Z,2.10
2017-07-23T09:06:30.953Z,1.60
2017-07-23T09:08:59.970Z,1.37
2017-07-23T09:11:29.005Z,1.70
2017-07-23T09:13:57.988Z,1.70
2017-07-23T09:16:27.021Z,1.60
2017-07-23T09:18:55.962Z,1.00
2017-07-23T09:21:24.944Z,1.50
2017-07-23T09:23:54.267Z,1.73
2017-07-23T09:26:23.318Z,2.40
2017-07-23T09:28:52.337Z,1.80
2017-07-23T09:31:21.372Z,1.80
2017-07-23T09:33:50.397Z,3.27
2017-07-23T09:36:20.125Z,2.27
2017-07-23T09:38:49.183Z,1.37
2017-07-23T09:41:18.171Z,1.20
2017-07-23T09:43:47.367Z,2.67
2017-07-23T09:46:16.384Z,1.27
2017-07-23T09:48:45.644Z,1.10
2017-07-23T09:51:14.678Z,1.20
2017-07-23T09:53:43.682Z,1.30
2017-07-23T09:56:12.699Z,1.50
2017-07-23T09:58:41.700Z,1.40
2017-07-23T10:01:10.730Z,1.40
2017-07-23T10:03:39.725Z,1.30
2017-07-23T10:06:08.785Z,1.40
2017-07-23T10:08:37.858Z,1.20
2017-07-23T10:11:06.859Z,1.03
2017-07-23T10:13:35.877Z,1.40
2017-07-23T10:16:04.946Z,2.70
2017-07-23T10:18:33.991Z,1.20
2017-07-23T10:21:03.047Z,1.10
2017-07-23T10:23:32.201Z,1.30
2017-07-23T10:26:01.258Z,1.00
2017-07-23T10:28:30.305Z,1.30
2017-07-23T10:30:59.370Z,1.10
2017-07-23T10:33:28.396Z,1.30
2017-07-23T10:35:57.369Z,1.20
2017-07-23T10:38:26.377Z,1.40
2017-07-23T10:40:55.395Z,1.20
2017-07-23T10:43:24.397Z,1.40
2017-07-23T10:45:53.445Z,1.13
2017-07-23T10:48:22.746Z,1.17
2017-07-23T10:50:51.760Z,1.30
2017-07-23T10:53:20.843Z,1.20
2017-07-23T10:55:49.866Z,1.20
2017-07-23T10:58:19.090Z,1.37
2017-07-23T11:00:48.130Z,1.07
2017-07-23T11:03:17.366Z,1.10
2017-07-23T11:05:46.375Z,1.10
2017-07-23T11:08:15.395Z,1.00
2017-07-23T11:10:44.398Z,1.00
2017-07-23T11:13:13.412Z,1.00
2017-07-23T11:15:42.423Z,1.17
2017-07-23T11:18:11.490Z,1.10
2017-07-23T11:20:40.481Z,1.53
2017-07-23T11:23:09.554Z,1.00
2017-07-23T11:25:38.560Z,1.00
2017-07-23T11:28:10.542Z,1.00
2017-07-23T11:30:39.690Z,1.20
2017-07-23T11:33:08.673Z,1.03
2017-07-23T11:35:37.701Z,1.00
2017-07-23T11:38:06.682Z,1.20
2017-07-23T11:40:35.684Z,1.20
2017-07-23T11:43:04.653Z,1.00
2017-07-23T11:45:33.652Z,1.50
2017-07-23T11:48:02.734Z,1.30
2017-07-23T11:50:46.342Z,1.10
2017-07-23T11:53:15.375Z,1.20
2017-07-23T11:55:44.417Z,1.13
2017-07-23T11:58:13.546Z,1.13
2017-07-23T12:00:42.561Z,1.60
2017-07-23T12:03:11.676Z,1.00
2017-07-23T12:05:40.784Z,0.90
2017-07-23T12:09:29.135Z,1.20
2017-07-23T12:11:58.139Z,1.00
2017-07-23T12:14:27.477Z,1.40
2017-07-23T12:16:56.573Z,1.10
2017-07-23T12:19:25.570Z,1.10
2017-07-23T12:21:54.586Z,1.10
2017-07-23T12:24:23.710Z,0.90
2017-07-23T12:26:52.758Z,1.10
2017-07-23T12:29:21.872Z,1.20
2017-07-23T12:31:50.873Z,1.10
2017-07-23T12:34:19.898Z,0.93
2017-07-23T12:36:48.927Z,1.00
2017-07-23T12:39:18.082Z,1.00
2017-07-23T12:42:49.394Z,1.03
2017-07-23T12:45:18.466Z,1.17
2017-07-23T12:47:47.566Z,1.53
2017-07-23T12:50:16.670Z,1.00
2017-07-23T12:52:45.698Z,1.00
2017-07-23T12:55:14.781Z,1.13
2017-07-23T12:57:43.823Z,1.10
2017-07-23T13:00:12.846Z,1.07
2017-07-23T13:02:41.838Z,1.10
2017-07-23T13:05:41.486Z,1.20
2017-07-23T13:08:10.516Z,1.00
2017-07-23T13:10:39.574Z,1.13
2017-07-23T13:13:08.597Z,1.10
2017-07-23T13:15:37.625Z,1.03
2017-07-23T13:18:06.642Z,1.37
2017-07-23T13:20:35.661Z,1.20
2017-07-23T13:23:04.695Z,1.20
2017-07-23T13:25:33.690Z,1.80
2017-07-23T13:28:02.779Z,1.20
2017-07-23T13:30:31.869Z,1.20
2017-07-23T13:33:00.952Z,1.40
2017-07-23T13:38:08.153Z,1.20
2017-07-23T13:40:37.194Z,1.30
2017-07-23T13:43:06.580Z,1.50
2017-07-23T13:45:35.587Z,1.57
2017-07-23T13:48:04.579Z,1.47
2017-07-23T13:50:33.675Z,1.30
2017-07-23T13:53:02.647Z,1.20
2017-07-23T13:55:31.731Z,1.10
2017-07-23T13:58:00.770Z,1.20
2017-07-23T14:00:29.778Z,1.30
2017-07-23T14:02:58.839Z,1.20
2017-07-23T14:05:27.787Z,1.00
2017-07-23T14:07:56.897Z,1.10
2017-07-23T14:10:25.920Z,1.20
2017-07-23T14:12:54.947Z,1.20
2017-07-23T14:15:24.045Z,1.10
2017-07-23T14:17:53.110Z,1.30
2017-07-23T14:20:22.142Z,1.37
2017-07-23T14:22:51.184Z,1.30
2017-07-23T14:25:20.222Z,1.00
2017-07-23T14:27:49.265Z,1.30
2017-07-23T14:30:18.283Z,1.30
2017-07-23T14:32:47.282Z,1.10
2017-07-23T14:35:16.296Z,1.20
2017-07-23T14:37:45.362Z,1.07
2017-07-23T14:40:14.392Z,1.20
2017-07-23T14:42:43.445Z,1.10
2017-07-23T14:45:12.515Z,1.40
2017-07-23T14:47:42.534Z,1.23
2017-07-23T14:50:11.552Z,1.57
2017-07-23T14:52:40.955Z,1.40
2017-07-23T14:55:10.224Z,1.40
2017-07-23T14:57:39.246Z,1.30
2017-07-23T15:00:08.239Z,1.40
2017-07-23T15:02:37.246Z,1.30
2017-07-23T15:05:06.283Z,1.10
2017-07-23T15:07:35.301Z,1.40
2017-07-23T15:10:04.391Z,1.50
2017-07-23T15:12:33.545Z,1.20
2017-07-23T15:15:02.675Z,1.47
2017-07-23T15:17:31.748Z,1.17
2017-07-23T15:20:00.821Z,1.30
2017-07-23T15:22:29.907Z,1.30
2017-07-23T15:24:58.936Z,1.23
2017-07-23T15:27:27.978Z,1.30
2017-07-23T15:29:57.018Z,1.10
2017-07-23T15:32:26.112Z,1.23
2017-07-23T15:34:55.231Z,1.20
2017-07-23T15:37:24.320Z,1.10
2017-07-23T15:39:53.327Z,1.40
2017-07-23T15:42:22.486Z,1.40
2017-07-23T15:44:51.599Z,1.40
2017-07-23T15:47:20.629Z,1.33
2017-07-23T15:49:49.723Z,1.30
2017-07-23T15:52:18.730Z,1.40
2017-07-23T15:54:47.779Z,1.70
2017-07-23T15:57:16.755Z,1.60
2017-07-23T15:59:45.779Z,1.10
2017-07-23T16:02:14.778Z,1.30
2017-07-23T16:04:43.905Z,1.30
2017-07-23T16:07:12.977Z,1.20
2017-07-23T16:09:42.036Z,1.30
2017-07-23T16:12:11.125Z,1.20
2017-07-23T16:14:40.179Z,1.40
2017-07-23T16:17:09.196Z,1.77
2017-07-23T16:19:38.255Z,1.30
2017-07-23T16:22:07.577Z,1.40
2017-07-23T16:27:14.706Z,1.40
2017-07-23T16:29:43.825Z,1.30
2017-07-23T16:32:12.860Z,1.97
2017-07-23T16:34:41.921Z,1.60
2017-07-23T16:37:11.035Z,1.20
2017-07-23T16:39:40.050Z,1.37
2017-07-23T16:42:09.123Z,1.30
2017-07-23T16:44:38.139Z,1.63
2017-07-23T16:47:07.160Z,1.33
2017-07-23T16:49:36.136Z,1.40
2017-07-23T16:52:05.171Z,1.20
2017-07-23T16:54:34.160Z,1.20
2017-07-23T16:57:03.271Z,1.40
2017-07-23T16:59:32.306Z,1.60
2017-07-23T17:02:01.476Z,1.50
2017-07-23T17:04:30.522Z,1.23
2017-07-23T17:06:59.596Z,1.40
2017-07-23T17:09:28.590Z,1.50
2017-07-23T17:11:57.628Z,1.70
2017-07-23T17:14:26.764Z,1.40
2017-07-23T17:16:55.786Z,1.70
2017-07-23T17:19:24.879Z,1.60
2017-07-23T17:21:53.976Z,1.63
2017-07-23T17:24:23.018Z,1.50
2017-07-23T17:26:52.105Z,1.43
2017-07-23T17:29:21.097Z,1.30
2017-07-23T17:31:50.121Z,1.50
2017-07-23T17:34:19.156Z,1.27
2017-07-23T17:36:48.163Z,1.60
2017-07-23T17:39:17.239Z,1.60
2017-07-23T17:41:46.268Z,1.30
2017-07-23T17:44:15.295Z,1.30
2017-07-23T17:46:44.382Z,1.33
2017-07-23T17:49:13.951Z,1.23
2017-07-23T17:51:43.357Z,1.40
2017-07-23T17:55:31.436Z,1.30
2017-07-23T17:58:00.514Z,1.70
2017-07-23T18:00:29.795Z,1.30
2017-07-23T18:02:58.882Z,1.30
2017-07-23T18:05:27.938Z,1.23
2017-07-23T18:07:57.325Z,1.50
2017-07-23T18:10:26.323Z,1.20
2017-07-23T18:12:55.441Z,1.30
2017-07-23T18:15:24.501Z,1.30
2017-07-23T18:17:53.557Z,1.40
2017-07-23T18:20:22.662Z,1.50
2017-07-23T18:22:51.751Z,1.40
2017-07-23T18:25:20.809Z,1.67
2017-07-23T18:27:49.818Z,1.93
2017-07-23T18:30:18.781Z,1.63
2017-07-23T18:32:47.798Z,1.40
2017-07-23T18:35:16.804Z,1.23
2017-07-23T18:37:45.841Z,1.10
2017-07-23T18:40:14.900Z,1.53
2017-07-23T18:42:43.912Z,1.20
2017-07-23T18:45:12.962Z,1.40
2017-07-23T18:47:42.011Z,1.20
2017-07-23T18:50:10.998Z,1.43
2017-07-23T18:52:40.104Z,1.43
2017-07-23T18:55:09.092Z,1.42
2017-07-23T18:57:38.418Z,1.50
2017-07-23T19:00:07.661Z,1.37
2017-07-23T19:02:36.784Z,1.70
2017-07-23T19:05:05.827Z,1.60
2017-07-23T19:07:36.562Z,1.77
2017-07-23T19:10:05.200Z,1.50
2017-07-23T19:12:34.249Z,1.60
2017-07-23T19:15:03.325Z,1.90
2017-07-23T19:17:32.350Z,1.50
2017-07-23T19:20:01.372Z,1.70
2017-07-23T19:22:33.394Z,2.08
2017-07-23T19:25:02.432Z,1.67
2017-07-23T19:27:31.423Z,2.07
2017-07-23T19:30:00.454Z,1.58
2017-07-23T19:32:29.514Z,1.50
2017-07-23T19:34:58.541Z,1.23
2017-07-23T19:37:27.625Z,1.75
2017-07-23T19:39:56.738Z,1.77
2017-07-23T19:42:26.865Z,1.40
2017-07-23T19:44:55.988Z,1.70
2017-07-23T19:47:25.113Z,1.45
2017-07-23T19:49:54.201Z,1.65
2017-07-23T19:52:23.220Z,1.90
2017-07-23T19:54:52.255Z,1.73
2017-07-23T19:57:21.276Z,1.73
2017-07-23T19:59:50.258Z,1.48
2017-07-23T20:02:19.268Z,1.50
2017-07-23T20:04:48.594Z,1.45
2017-07-23T20:07:17.654Z,1.70
2017-07-23T20:09:46.680Z,1.70
2017-07-23T20:12:15.808Z,1.80
2017-07-23T20:14:44.855Z,1.60
2017-07-23T20:17:13.920Z,1.40
2017-07-23T20:19:43.014Z,1.85
2017-07-23T20:22:12.052Z,1.52
2017-07-23T20:24:41.127Z,1.33
2017-07-23T20:27:10.124Z,2.72
2017-07-23T20:29:39.131Z,1.65
2017-07-23T20:32:08.162Z,1.95
2017-07-23T20:34:37.171Z,1.77
2017-07-23T20:37:06.218Z,1.70
2017-07-23T20:39:35.224Z,1.62
2017-07-23T20:42:04.209Z,1.83
2017-07-23T20:44:33.249Z,1.20
2017-07-23T20:47:02.311Z,1.45
2017-07-23T20:49:31.345Z,1.70
2017-07-23T20:52:00.335Z,1.87
2017-07-23T20:54:29.369Z,1.83
2017-07-23T20:56:58.376Z,1.60
2017-07-23T20:59:27.399Z,2.00
2017-07-23T21:01:56.457Z,1.60
2017-07-23T21:04:25.524Z,1.55
2017-07-23T21:06:54.525Z,1.60
2017-07-23T21:09:23.882Z,1.65
2017-07-23T21:11:52.900Z,1.52
2017-07-23T21:14:21.910Z,1.60
2017-07-23T21:16:50.920Z,2.17
2017-07-23T21:19:20.415Z,1.95
2017-07-23T21:21:49.804Z,1.75
2017-07-23T21:24:19.198Z,1.85
2017-07-23T21:26:48.270Z,1.87
2017-07-23T21:29:17.305Z,1.90
2017-07-23T21:31:46.349Z,1.50
2017-07-23T21:34:15.350Z,1.60
2017-07-23T21:36:44.394Z,1.80
2017-07-23T21:39:13.399Z,1.80
2017-07-23T21:41:42.448Z,2.12
2017-07-23T21:44:11.470Z,1.50
2017-07-23T21:46:40.466Z,1.80
2017-07-23T21:49:09.402Z,1.42
2017-07-23T21:51:38.384Z,2.47
2017-07-23T21:54:07.376Z,2.10
2017-07-23T21:56:36.377Z,1.70
2017-07-23T21:59:05.413Z,2.10
2017-07-23T22:01:34.445Z,1.70
2017-07-23T22:04:03.419Z,1.70
2017-07-23T22:06:32.931Z,1.98
2017-07-23T22:09:01.969Z,1.60
2017-07-23T22:11:30.986Z,1.83
2017-07-23T22:13:59.958Z,1.60
2017-07-23T22:16:28.950Z,1.90
2017-07-23T22:18:57.956Z,1.70
2017-07-23T22:21:26.974Z,1.95
2017-07-23T22:23:56.020Z,2.08
2017-07-23T22:26:25.039Z,1.65
2017-07-23T22:28:54.104Z,1.60
2017-07-23T22:31:23.111Z,1.73
2017-07-23T22:33:52.077Z,2.00
2017-07-23T22:36:21.050Z,1.80
2017-07-23T22:38:50.025Z,1.90
2017-07-23T22:41:19.002Z,1.80
2017-07-23T22:43:48.202Z,1.85
2017-07-23T22:46:17.418Z,1.83
2017-07-23T22:48:46.389Z,1.92
2017-07-23T22:51:15.337Z,1.80
2017-07-23T22:53:44.339Z,2.00
2017-07-23T22:56:13.313Z,2.22
2017-07-23T22:58:42.254Z,1.77
2017-07-23T23:03:49.367Z,1.90
2017-07-23T23:06:18.454Z,2.10
2017-07-23T23:08:47.510Z,1.80
2017-07-23T23:11:16.505Z,1.80
2017-07-23T23:13:46.701Z,1.85
2017-07-23T23:16:16.196Z,2.00
2017-07-23T23:18:45.151Z,1.85
2017-07-23T23:21:14.216Z,1.90
2017-07-23T23:23:43.226Z,1.52
2017-07-23T23:26:12.213Z,1.98
2017-07-23T23:28:41.163Z,1.80
2017-07-23T23:31:10.146Z,1.60
2017-07-23T23:33:39.189Z,1.80
2017-07-23T23:36:08.158Z,2.22
2017-07-23T23:38:37.157Z,2.10
2017-07-23T23:41:06.173Z,1.85
2017-07-23T23:43:35.140Z,1.70
2017-07-23T23:46:04.093Z,2.00
2017-07-23T23:48:33.094Z,2.20
2017-07-23T23:51:02.077Z,1.80
2017-07-23T23:53:31.030Z,2.17
2017-07-23T23:55:59.978Z,2.00
2017-07-23T23:58:28.948Z,1.70
